AUA682 LDZA-LOWW
Flight info
| Callsign | AUA682 |
|---|---|
| Flight time | 0h 33m |
| Altitude | 22000 |
| Route | OBUTI1U OBUTI OBUTI2W |
| Aircraft | A320/M-SDE3FGHIRWY/LB1 |
Departure
| Time | 2026-05-08 00:00 |
|---|---|
| Airport | Zagreb Franjo Tuđman International Airport (LDZA) |
Arrival
| Time | 2026-05-08 00:33 |
|---|---|
| Airport | Vienna International Airport (LOWW) |
| Time | Latitude | Longitude | Altitude | Speed | Heading |
|---|---|---|---|---|---|
| 2026-05-07 22:46 | 45.74144 | 16.07801 | 360 ft | 0 kts | 136° |
| 2026-05-07 23:02 | 45.74144 | 16.07800 | 360 ft | 0 kts | 136° |
| 2026-05-07 23:50 | 45.74159 | 16.07779 | 364 ft | 4 kts | 133° |
| 2026-05-07 23:50 | 45.74177 | 16.07749 | 363 ft | 4 kts | 126° |
| 2026-05-07 23:50 | 45.74192 | 16.07717 | 363 ft | 4 kts | 113° |
| 2026-05-07 23:51 | 45.74197 | 16.07683 | 361 ft | 4 kts | 63° |
| 2026-05-07 23:51 | 45.74191 | 16.07671 | 360 ft | 1 kts | 46° |
| 2026-05-07 23:51 | 45.74191 | 16.07670 | 360 ft | 0 kts | 46° |
| 2026-05-07 23:53 | 45.74193 | 16.07680 | 365 ft | 1 kts | 88° |
| 2026-05-07 23:53 | 45.74184 | 16.07679 | 365 ft | 1 kts | 192° |
| 2026-05-07 23:54 | 45.74177 | 16.07665 | 362 ft | 3 kts | 226° |
| 2026-05-07 23:54 | 45.74150 | 16.07624 | 360 ft | 8 kts | 226° |
| 2026-05-07 23:54 | 45.74115 | 16.07572 | 366 ft | 7 kts | 226° |
| 2026-05-07 23:54 | 45.74096 | 16.07538 | 360 ft | 6 kts | 235° |
| 2026-05-07 23:55 | 45.74065 | 16.07466 | 360 ft | 10 kts | 249° |
| 2026-05-07 23:55 | 45.74100 | 16.07355 | 361 ft | 14 kts | 317° |
| 2026-05-07 23:55 | 45.74152 | 16.07283 | 357 ft | 17 kts | 315° |
| 2026-05-07 23:55 | 45.74203 | 16.07145 | 360 ft | 16 kts | 251° |
| 2026-05-07 23:56 | 45.74134 | 16.07032 | 359 ft | 15 kts | 227° |
| 2026-05-07 23:56 | 45.74062 | 16.06922 | 359 ft | 16 kts | 226° |
| 2026-05-07 23:56 | 45.73987 | 16.06810 | 364 ft | 16 kts | 226° |
| 2026-05-07 23:56 | 45.73905 | 16.06687 | 357 ft | 19 kts | 226° |
| 2026-05-07 23:57 | 45.73814 | 16.06551 | 364 ft | 19 kts | 228° |
| 2026-05-07 23:57 | 45.73723 | 16.06407 | 366 ft | 20 kts | 223° |
| 2026-05-07 23:57 | 45.73622 | 16.06258 | 366 ft | 23 kts | 226° |
| 2026-05-07 23:57 | 45.73505 | 16.06078 | 364 ft | 26 kts | 227° |
| 2026-05-07 23:58 | 45.73388 | 16.05896 | 361 ft | 26 kts | 227° |
| 2026-05-07 23:58 | 45.73282 | 16.05732 | 359 ft | 23 kts | 226° |
| 2026-05-07 23:58 | 45.73174 | 16.05571 | 365 ft | 18 kts | 226° |
| 2026-05-07 23:58 | 45.73105 | 16.05455 | 363 ft | 14 kts | 243° |
| 2026-05-07 23:59 | 45.73108 | 16.05328 | 364 ft | 13 kts | 295° |
| 2026-05-07 23:59 | 45.73179 | 16.05253 | 370 ft | 14 kts | 332° |
| 2026-05-07 23:59 | 45.73260 | 16.05315 | 367 ft | 16 kts | 45° |
| 2026-05-07 23:59 | 45.73408 | 16.05532 | 363 ft | 63 kts | 46° |
| 2026-05-08 00:00 | 45.73881 | 16.06244 | 368 ft | 130 kts | 47° |
| 2026-05-08 00:00 | 45.74609 | 16.07353 | 600 ft | 162 kts | 46° |
| 2026-05-08 00:00 | 45.75410 | 16.08589 | 1189 ft | 177 kts | 46° |
| 2026-05-08 00:00 | 45.76261 | 16.09921 | 1826 ft | 189 kts | 46° |
| 2026-05-08 00:01 | 45.77171 | 16.11365 | 2450 ft | 202 kts | 46° |
| 2026-05-08 00:01 | 45.78152 | 16.12938 | 3039 ft | 220 kts | 46° |
| 2026-05-08 00:01 | 45.79208 | 16.14649 | 3741 ft | 235 kts | 46° |
| 2026-05-08 00:01 | 45.80320 | 16.16437 | 4396 ft | 254 kts | 45° |
| 2026-05-08 00:02 | 45.81597 | 16.18325 | 5110 ft | 269 kts | 43° |
| 2026-05-08 00:02 | 45.82935 | 16.20257 | 6056 ft | 276 kts | 44° |
| 2026-05-08 00:02 | 45.84298 | 16.22245 | 7010 ft | 281 kts | 44° |
| 2026-05-08 00:02 | 45.85655 | 16.24260 | 7886 ft | 286 kts | 45° |
| 2026-05-08 00:03 | 45.87044 | 16.26349 | 8814 ft | 292 kts | 45° |
| 2026-05-08 00:03 | 45.88454 | 16.28489 | 9726 ft | 297 kts | 45° |
| 2026-05-08 00:03 | 45.89864 | 16.30725 | 10456 ft | 309 kts | 51° |
| 2026-05-08 00:03 | 45.91188 | 16.33229 | 11182 ft | 317 kts | 51° |
| 2026-05-08 00:04 | 45.92614 | 16.35683 | 11978 ft | 322 kts | 38° |
| 2026-05-08 00:04 | 45.94551 | 16.37148 | 12767 ft | 320 kts | 12° |
| 2026-05-08 00:04 | 45.96758 | 16.37721 | 13466 ft | 328 kts | 3° |
| 2026-05-08 00:04 | 45.99122 | 16.37970 | 13693 ft | 350 kts | 358° |
| 2026-05-08 00:05 | 46.01611 | 16.37875 | 14123 ft | 361 kts | 351° |
| 2026-05-08 00:05 | 46.04078 | 16.37333 | 14756 ft | 365 kts | 346° |
| 2026-05-08 00:05 | 46.06591 | 16.36668 | 15470 ft | 368 kts | 346° |
| 2026-05-08 00:05 | 46.09124 | 16.35955 | 16183 ft | 372 kts | 345° |
| 2026-05-08 00:06 | 46.11674 | 16.35207 | 16893 ft | 376 kts | 345° |
| 2026-05-08 00:06 | 46.14252 | 16.34440 | 17594 ft | 379 kts | 345° |
| 2026-05-08 00:06 | 46.16814 | 16.33672 | 17982 ft | 381 kts | 345° |
| 2026-05-08 00:06 | 46.19421 | 16.32891 | 18079 ft | 381 kts | 345° |
| 2026-05-08 00:07 | 46.22022 | 16.32115 | 18082 ft | 381 kts | 345° |
| 2026-05-08 00:07 | 46.24623 | 16.31340 | 18083 ft | 380 kts | 345° |
| 2026-05-08 00:07 | 46.27216 | 16.30567 | 18083 ft | 380 kts | 345° |
| 2026-05-08 00:07 | 46.29778 | 16.29803 | 18001 ft | 382 kts | 345° |
| 2026-05-08 00:08 | 46.32410 | 16.29016 | 18084 ft | 388 kts | 345° |
| 2026-05-08 00:08 | 46.35066 | 16.28223 | 18080 ft | 388 kts | 345° |
| 2026-05-08 00:08 | 46.37717 | 16.27435 | 18082 ft | 388 kts | 345° |
| 2026-05-08 00:08 | 46.40335 | 16.26711 | 17797 ft | 387 kts | 347° |
| 2026-05-08 00:09 | 46.42990 | 16.26067 | 17572 ft | 387 kts | 348° |
| 2026-05-08 00:09 | 46.45651 | 16.25470 | 17355 ft | 385 kts | 348° |
| 2026-05-08 00:09 | 46.48306 | 16.24888 | 17110 ft | 384 kts | 348° |
| 2026-05-08 00:09 | 46.50955 | 16.24297 | 16887 ft | 383 kts | 348° |
| 2026-05-08 00:10 | 46.53548 | 16.23705 | 16664 ft | 381 kts | 348° |
| 2026-05-08 00:10 | 46.56171 | 16.23090 | 16433 ft | 380 kts | 348° |
| 2026-05-08 00:10 | 46.58789 | 16.22468 | 16210 ft | 379 kts | 348° |
| 2026-05-08 00:10 | 46.61387 | 16.21846 | 15984 ft | 378 kts | 348° |
| 2026-05-08 00:11 | 46.63979 | 16.21226 | 15757 ft | 376 kts | 348° |
| 2026-05-08 00:11 | 46.66533 | 16.20618 | 15536 ft | 375 kts | 348° |
| 2026-05-08 00:11 | 46.69112 | 16.20004 | 15311 ft | 374 kts | 348° |
| 2026-05-08 00:11 | 46.71686 | 16.19389 | 15092 ft | 373 kts | 348° |
| 2026-05-08 00:12 | 46.74251 | 16.18773 | 14868 ft | 372 kts | 348° |
| 2026-05-08 00:12 | 46.76767 | 16.18165 | 14648 ft | 370 kts | 348° |
| 2026-05-08 00:12 | 46.79302 | 16.17554 | 14431 ft | 369 kts | 348° |
| 2026-05-08 00:12 | 46.81840 | 16.16944 | 14212 ft | 369 kts | 348° |
| 2026-05-08 00:13 | 46.84400 | 16.16330 | 13989 ft | 367 kts | 348° |
| 2026-05-08 00:13 | 46.86888 | 16.15734 | 13761 ft | 366 kts | 348° |
| 2026-05-08 00:13 | 46.89405 | 16.15132 | 13538 ft | 365 kts | 348° |
| 2026-05-08 00:13 | 46.91920 | 16.14531 | 13319 ft | 364 kts | 348° |
| 2026-05-08 00:14 | 46.94421 | 16.13933 | 13103 ft | 363 kts | 348° |
| 2026-05-08 00:14 | 46.96906 | 16.13338 | 12743 ft | 362 kts | 349° |
| 2026-05-08 00:14 | 46.99351 | 16.12752 | 12206 ft | 358 kts | 349° |
| 2026-05-08 00:14 | 47.01797 | 16.12163 | 11713 ft | 354 kts | 349° |
| 2026-05-08 00:15 | 47.04224 | 16.11575 | 11229 ft | 351 kts | 349° |
| 2026-05-08 00:15 | 47.06632 | 16.10991 | 10783 ft | 346 kts | 349° |
| 2026-05-08 00:15 | 47.08929 | 16.10432 | 10663 ft | 331 kts | 349° |
| 2026-05-08 00:15 | 47.11152 | 16.09893 | 10540 ft | 317 kts | 349° |
| 2026-05-08 00:16 | 47.13286 | 16.09375 | 10415 ft | 304 kts | 349° |
| 2026-05-08 00:16 | 47.15341 | 16.08879 | 10297 ft | 293 kts | 349° |
| 2026-05-08 00:16 | 47.17330 | 16.08400 | 10086 ft | 286 kts | 349° |
| 2026-05-08 00:16 | 47.19251 | 16.07931 | 9933 ft | 282 kts | 349° |
| 2026-05-08 00:17 | 47.21185 | 16.07460 | 9806 ft | 281 kts | 349° |
| 2026-05-08 00:17 | 47.23114 | 16.06991 | 9656 ft | 280 kts | 349° |
| 2026-05-08 00:17 | 47.25032 | 16.06525 | 9446 ft | 279 kts | 349° |
| 2026-05-08 00:17 | 47.26951 | 16.06059 | 9211 ft | 278 kts | 350° |
| 2026-05-08 00:18 | 47.28839 | 16.05599 | 8985 ft | 277 kts | 350° |
| 2026-05-08 00:18 | 47.30743 | 16.05132 | 8759 ft | 276 kts | 350° |
| 2026-05-08 00:18 | 47.32639 | 16.04666 | 8540 ft | 276 kts | 350° |
| 2026-05-08 00:18 | 47.34534 | 16.04203 | 8302 ft | 274 kts | 350° |
| 2026-05-08 00:19 | 47.36400 | 16.03917 | 8113 ft | 273 kts | 0° |
| 2026-05-08 00:19 | 47.38287 | 16.04308 | 8018 ft | 273 kts | 15° |
| 2026-05-08 00:19 | 47.40094 | 16.05195 | 8033 ft | 274 kts | 17° |
| 2026-05-08 00:19 | 47.41910 | 16.06096 | 8030 ft | 274 kts | 17° |
| 2026-05-08 00:20 | 47.43694 | 16.06977 | 8033 ft | 274 kts | 17° |
| 2026-05-08 00:20 | 47.45506 | 16.07869 | 8032 ft | 274 kts | 17° |
| 2026-05-08 00:20 | 47.47314 | 16.08758 | 8030 ft | 273 kts | 17° |
| 2026-05-08 00:20 | 47.49123 | 16.09654 | 8025 ft | 274 kts | 17° |
| 2026-05-08 00:21 | 47.50932 | 16.10554 | 8030 ft | 274 kts | 17° |
| 2026-05-08 00:21 | 47.52725 | 16.11448 | 8029 ft | 274 kts | 17° |
| 2026-05-08 00:21 | 47.54539 | 16.12350 | 8031 ft | 274 kts | 17° |
| 2026-05-08 00:21 | 47.56351 | 16.13249 | 8032 ft | 274 kts | 17° |
| 2026-05-08 00:22 | 47.58160 | 16.14147 | 8028 ft | 274 kts | 17° |
| 2026-05-08 00:22 | 47.59952 | 16.15036 | 8026 ft | 274 kts | 17° |
| 2026-05-08 00:22 | 47.61763 | 16.15937 | 8027 ft | 275 kts | 17° |
| 2026-05-08 00:22 | 47.63580 | 16.16844 | 8027 ft | 275 kts | 17° |
| 2026-05-08 00:23 | 47.65399 | 16.17753 | 8024 ft | 276 kts | 17° |
| 2026-05-08 00:23 | 47.67227 | 16.18668 | 8025 ft | 276 kts | 17° |
| 2026-05-08 00:23 | 47.69024 | 16.19566 | 8024 ft | 276 kts | 17° |
| 2026-05-08 00:23 | 47.70845 | 16.20477 | 8024 ft | 276 kts | 17° |
| 2026-05-08 00:24 | 47.72671 | 16.21391 | 8024 ft | 276 kts | 17° |
| 2026-05-08 00:24 | 47.74493 | 16.22316 | 8022 ft | 276 kts | 20° |
| 2026-05-08 00:24 | 47.76153 | 16.23687 | 8020 ft | 279 kts | 36° |
| 2026-05-08 00:24 | 47.77536 | 16.25739 | 7744 ft | 284 kts | 52° |
| 2026-05-08 00:25 | 47.78546 | 16.28260 | 7346 ft | 283 kts | 59° |
| 2026-05-08 00:25 | 47.79504 | 16.30807 | 6983 ft | 280 kts | 59° |
| 2026-05-08 00:25 | 47.80459 | 16.33324 | 6625 ft | 278 kts | 59° |
| 2026-05-08 00:25 | 47.81394 | 16.35784 | 6262 ft | 276 kts | 58° |
| 2026-05-08 00:26 | 47.82335 | 16.38259 | 5901 ft | 274 kts | 58° |
| 2026-05-08 00:26 | 47.83273 | 16.40722 | 5549 ft | 272 kts | 58° |
| 2026-05-08 00:26 | 47.84208 | 16.43175 | 5203 ft | 271 kts | 58° |
| 2026-05-08 00:26 | 47.85134 | 16.45611 | 4858 ft | 270 kts | 57° |
| 2026-05-08 00:27 | 47.86045 | 16.48021 | 4506 ft | 269 kts | 57° |
| 2026-05-08 00:27 | 47.86953 | 16.50428 | 4295 ft | 260 kts | 57° |
| 2026-05-08 00:27 | 47.87811 | 16.52709 | 4212 ft | 245 kts | 57° |
| 2026-05-08 00:27 | 47.88624 | 16.54869 | 4109 ft | 233 kts | 57° |
| 2026-05-08 00:28 | 47.89387 | 16.56905 | 3949 ft | 225 kts | 56° |
| 2026-05-08 00:28 | 47.90155 | 16.58942 | 3669 ft | 225 kts | 56° |
| 2026-05-08 00:28 | 47.90920 | 16.60960 | 3402 ft | 222 kts | 56° |
| 2026-05-08 00:28 | 47.91786 | 16.62815 | 3117 ft | 213 kts | 40° |
| 2026-05-08 00:29 | 47.92940 | 16.64074 | 3004 ft | 201 kts | 21° |
| 2026-05-08 00:29 | 47.94239 | 16.64691 | 3004 ft | 189 kts | 4° |
| 2026-05-08 00:29 | 47.95485 | 16.64708 | 2995 ft | 171 kts | 348° |
| 2026-05-08 00:29 | 47.96592 | 16.64302 | 3035 ft | 157 kts | 342° |
| 2026-05-08 00:30 | 47.97625 | 16.63869 | 2902 ft | 152 kts | 342° |
| 2026-05-08 00:30 | 47.98637 | 16.63444 | 2720 ft | 150 kts | 342° |
| 2026-05-08 00:30 | 47.99637 | 16.63023 | 2517 ft | 148 kts | 342° |
| 2026-05-08 00:30 | 48.00625 | 16.62607 | 2322 ft | 147 kts | 342° |
| 2026-05-08 00:31 | 48.01618 | 16.62189 | 2129 ft | 149 kts | 342° |
| 2026-05-08 00:31 | 48.02596 | 16.61777 | 1926 ft | 147 kts | 342° |
| 2026-05-08 00:31 | 48.03558 | 16.61373 | 1726 ft | 137 kts | 343° |
| 2026-05-08 00:31 | 48.04455 | 16.60995 | 1539 ft | 134 kts | 342° |
| 2026-05-08 00:32 | 48.05351 | 16.60617 | 1352 ft | 135 kts | 342° |
| 2026-05-08 00:32 | 48.06259 | 16.60229 | 1174 ft | 135 kts | 341° |
| 2026-05-08 00:32 | 48.07170 | 16.59854 | 992 ft | 136 kts | 342° |
| 2026-05-08 00:32 | 48.08069 | 16.59481 | 807 ft | 135 kts | 342° |
| 2026-05-08 00:33 | 48.08968 | 16.59094 | 633 ft | 134 kts | 341° |
| 2026-05-08 00:33 | 48.09765 | 16.58747 | 603 ft | 98 kts | 343° |
| 2026-05-08 00:33 | 48.10282 | 16.58531 | 597 ft | 64 kts | 344° |
| 2026-05-08 00:33 | 48.10596 | 16.58395 | 599 ft | 28 kts | 339° |
| 2026-05-08 00:34 | 48.10751 | 16.58244 | 603 ft | 26 kts | 319° |
| 2026-05-08 00:34 | 48.10844 | 16.58093 | 604 ft | 20 kts | 321° |
| 2026-05-08 00:34 | 48.10951 | 16.57955 | 612 ft | 20 kts | 316° |
| 2026-05-08 00:34 | 48.11038 | 16.57793 | 609 ft | 21 kts | 301° |
| 2026-05-08 00:35 | 48.11107 | 16.57590 | 618 ft | 23 kts | 295° |
| 2026-05-08 00:35 | 48.11178 | 16.57368 | 610 ft | 24 kts | 296° |
| 2026-05-08 00:35 | 48.11250 | 16.57141 | 619 ft | 25 kts | 295° |
| 2026-05-08 00:35 | 48.11335 | 16.56909 | 610 ft | 26 kts | 306° |
| 2026-05-08 00:36 | 48.11464 | 16.56748 | 602 ft | 25 kts | 301° |
| 2026-05-08 00:36 | 48.11548 | 16.56521 | 598 ft | 24 kts | 297° |
| 2026-05-08 00:36 | 48.11622 | 16.56293 | 599 ft | 25 kts | 296° |
| 2026-05-08 00:36 | 48.11676 | 16.56131 | 600 ft | 13 kts | 312° |
| 2026-05-08 00:37 | 48.11760 | 16.56116 | 598 ft | 12 kts | 21° |
| 2026-05-08 00:37 | 48.11771 | 16.56123 | 598 ft | 0 kts | 23° |